This is the latest recevied weather packets stored in our database for station/object N3TTT-13. If no packets are shown the sender has not sent any weather packets the latest 1 day(s).
| Time | Temp. | Humidity | Pressure | Rain* | Wind** | Luminosity | Snow |
|---|---|---|---|---|---|---|---|
| 1836274725 | 19.44° C | 95% | 1018.5 hPa | 0 mm | 0 m/s | 0 W/m² | - |
| 1836274578 | 20° C | 95% | 1018.6 hPa | 0 mm | 0 m/s | 0 W/m² | - |
| 1836274424 | 19.44° C | 95% | 1018.4 hPa | 0 mm | 0 m/s | 0 W/m² | - |
| 1836274278 | 20° C | 95% | 1018.6 hPa | 0 mm | 0 m/s | 0 W/m² | - |
| 1836274122 | 19.44° C | 95% | 1018.3 hPa | 0 mm | 0 m/s | 0 W/m² | - |
| 1778091493 | 20° C | 78% | 1009.1 hPa | 0 mm | 0.45 m/s, 169° | 291 W/m² | - |
| 1778091191 | 20° C | 78% | 1009.2 hPa | 0 mm | 3.13 m/s, 187° | 278 W/m² | - |
| 1778090888 | 20° C | 79% | 1009.4 hPa | 0 mm | 0.45 m/s, 200° | 276 W/m² | - |
| 1778090583 | 20° C | 78% | 1009.5 hPa | 0 mm | 2.68 m/s, 217° | 180 W/m² | - |
| 1778090280 | 20° C | 80% | 1009.7 hPa | 0 mm | 1.34 m/s, 303° | 248 W/m² | - |
| 1778089977 | 19.44° C | 80% | 1009.7 hPa | 0 mm | 1.34 m/s, 273° | 180 W/m² | - |
| 1778089674 | 20° C | 80% | 1009.7 hPa | 0 mm | 2.68 m/s, 170° | 191 W/m² | - |
| 1778089372 | 20° C | 81% | 1009.5 hPa | 0 mm | 0.45 m/s, 279° | 258 W/m² | - |
| 1778089069 | 19.44° C | 82% | 1009.4 hPa | 0 mm | 0.89 m/s, 272° | 336 W/m² | - |
| 1778088766 | 19.44° C | 82% | 1009.7 hPa | 0 mm | 2.68 m/s, 164° | 261 W/m² | - |
| 1778088462 | 18.89° C | 84% | 1009.7 hPa | 0 mm | 2.24 m/s, 180° | 161 W/m² | - |
| 1778088159 | 18.89° C | 84% | 1009.8 hPa | 0 mm | 0.45 m/s, 261° | 250 W/m² | - |
| 1778087857 | 18.89° C | 85% | 1009.7 hPa | 0 mm | 0.45 m/s, 180° | 366 W/m² | - |
| 1778087554 | 18.33° C | 86% | 1009.7 hPa | 0 mm | 0.45 m/s, 249° | 370 W/m² | - |
| 1778087251 | 17.78° C | 87% | 1009.7 hPa | 0 mm | 0.89 m/s, 246° | 143 W/m² | - |
| 1778086948 | 17.78° C | 87% | 1010 hPa | 0 mm | 1.34 m/s, 262° | 58 W/m² | - |
| 1778086646 | 17.78° C | 89% | 1010.1 hPa | 0 mm | 0.45 m/s, 245° | 91 W/m² | - |
| 1778086343 | 17.78° C | 88% | 1010.1 hPa | 0 mm | 0.45 m/s, 226° | 68 W/m² | - |
| 1778086040 | 17.78° C | 88% | 1010.2 hPa | 0 mm | 0.45 m/s, 244° | 111 W/m² | - |
| 1778085737 | 17.78° C | 89% | 1010.1 hPa | 0 mm | 0.45 m/s, 201° | 146 W/m² | - |
* Rain latest hour (hover to see other rain measurements)
** Current wind speed in m/s (hover to see current wind gust speed)